Nellis Air Force Base
KLSV : rendu visible

Aérodrome :











RETROUVEZ-NOUS SUR...

 
LOGIN :

S'inscrire | Disclaimer

   EN    FR    IT 

 









Légende :    VFR   VFR Marginal   IFR   IFR Intensif   IFR Très Intensif
Visi : 
Plafond : 
>= 8 km
>= 3000ft
5 à 8 km
1000 à 3000 ft
1500m à 5 km
500 à 1000 ft
800 à 1500m
200 à 500 ft
< 800m
< 200 ft
Symboles :   Orages  Brouillard  Fortes neiges  Fortes précipitations  Vent > 20 kt






- Altitude de l'aérodrome : 1870 ft


KLSV - Nellis Air Force Base

DERNIER METAR :
  • 211458Z 00000KT 10SM FEW010 BKN039 OVC050 09/07 A2984 RMK AO2A SLP101 60000 T00890068 52018 $

METARs EXPIRÉS :
  • 211358Z 03005KT 10SM OVC040 09/07 A2982 RMK AO2A SLP094 T00870071 $
  • 211258Z 01003KT 10SM BKN045 08/07 A2980 RMK AO2A RAB1228E1252 SLP087 P0000 T00840071 $

TAF AMD TAF KLSV
Valide du 21 à 15h jusqu'au 22 à 21h UTC


211504Z 2115/2221 VRB06KT 9999 VCSH FEW010 BKN040 610409 QNH2984INS
TEMPO 2115/2121 9000 -SHRA BKN020
BECMG 2120/2121 VRB06KT 9999 NSW SCT040 BKN060 QNH2991INS
BECMG 2202/2203 VRB06KT 9999 SCT050 QNH3003INS TX12/2122Z TN09/2116Z



MET'MAP, la Météo Aéronautique d'un coup d'oeil ! - Copyright ORBIFLY Décembre 2007 - Disclaimer

ORBIFLY MET'MAP TEAM :

Programmation & Développement : Alexandra Zaïnal
Conception & Développement : Baudouin d'Aumeries
Co-Programmation & Développement : Marc-Olivier Méhu
Soutien technique & logistique : Manuel Goepfert

Contact : metmap@orbifly.com




SOURCES & CREDITS :

   NOAA       Earth
Advisory